createdAt,value
2023-11-19T00:01:24.819Z,100.00
2023-11-19T00:03:27.899Z,100.00
2023-11-19T00:05:31.304Z,100.00
2023-11-19T00:07:35.680Z,100.00
2023-11-19T00:09:40.884Z,100.00
2023-11-19T00:13:56.814Z,100.00
2023-11-19T00:15:59.836Z,100.00
2023-11-19T00:18:06.181Z,100.00
2023-11-19T00:20:10.217Z,100.00
2023-11-19T00:22:13.226Z,100.00
2023-11-19T00:24:19.237Z,100.00
2023-11-19T00:26:23.645Z,100.00
2023-11-19T00:28:30.056Z,100.00
2023-11-19T00:30:33.145Z,100.00
2023-11-19T00:32:36.409Z,100.00
2023-11-19T00:34:39.708Z,100.00
2023-11-19T00:36:42.678Z,100.00
2023-11-19T00:38:45.635Z,100.00
2023-11-19T00:40:48.738Z,100.00
2023-11-19T00:42:59.919Z,100.00
2023-11-19T00:45:04.717Z,100.00
2023-11-19T00:47:07.912Z,100.00
2023-11-19T00:49:13.149Z,100.00
2023-11-19T00:51:16.360Z,100.00
2023-11-19T00:53:19.396Z,100.00
2023-11-19T00:55:22.479Z,100.00
2023-11-19T00:57:25.559Z,100.00
2023-11-19T00:59:30.626Z,100.00
2023-11-19T01:01:33.595Z,100.00
2023-11-19T01:03:36.735Z,100.00
2023-11-19T01:05:39.784Z,100.00
2023-11-19T01:07:43.128Z,100.00
2023-11-19T01:09:46.270Z,100.00
2023-11-19T01:11:49.427Z,100.00
2023-11-19T01:13:53.026Z,100.00
2023-11-19T01:15:58.086Z,100.00
2023-11-19T01:18:01.117Z,100.00
2023-11-19T01:20:07.326Z,100.00
2023-11-19T01:22:10.280Z,100.00
2023-11-19T01:24:14.807Z,100.00
2023-11-19T01:26:18.300Z,100.00
2023-11-19T01:28:22.171Z,100.00
2023-11-19T01:30:25.446Z,100.00
2023-11-19T01:32:29.988Z,100.00
2023-11-19T01:34:33.022Z,100.00
2023-11-19T01:36:36.299Z,100.00
2023-11-19T01:38:39.425Z,100.00
2023-11-19T01:40:42.462Z,100.00
2023-11-19T01:42:45.434Z,100.00
2023-11-19T01:44:59.363Z,100.00
2023-11-19T01:47:03.066Z,100.00
2023-11-19T01:49:09.057Z,100.00
2023-11-19T01:51:13.795Z,100.00
2023-11-19T01:53:16.805Z,100.00
2023-11-19T01:55:21.149Z,100.00
2023-11-19T01:57:25.428Z,100.00
2023-11-19T01:59:28.954Z,100.00
2023-11-19T02:01:34.086Z,100.00
2023-11-19T02:03:37.248Z,100.00
2023-11-19T02:05:42.803Z,100.00
2023-11-19T02:07:47.656Z,100.00
2023-11-19T02:09:50.775Z,100.00
2023-11-19T02:11:55.356Z,100.00
2023-11-19T02:13:58.924Z,100.00
2023-11-19T02:16:03.542Z,100.00
2023-11-19T02:18:23.634Z,100.00
2023-11-19T02:20:27.804Z,100.00
2023-11-19T02:22:32.543Z,100.00
2023-11-19T02:24:35.764Z,100.00
2023-11-19T02:26:45.790Z,100.00
2023-11-19T02:28:50.187Z,100.00
2023-11-19T02:30:54.653Z,100.00
2023-11-19T02:33:03.457Z,100.00
2023-11-19T02:35:08.213Z,100.00
2023-11-19T02:37:11.431Z,100.00
2023-11-19T02:39:14.905Z,100.00
2023-11-19T02:41:17.894Z,100.00
2023-11-19T02:43:21.961Z,100.00
2023-11-19T02:45:27.630Z,100.00
2023-11-19T02:47:31.858Z,100.00
2023-11-19T02:49:34.984Z,100.00
2023-11-19T02:51:37.974Z,100.00
2023-11-19T02:53:42.601Z,100.00
2023-11-19T02:55:50.188Z,100.00
2023-11-19T02:57:55.008Z,100.00
2023-11-19T02:59:58.206Z,100.00
2023-11-19T03:02:02.768Z,100.00
2023-11-19T03:04:06.339Z,100.00
2023-11-19T03:06:10.893Z,100.00
2023-11-19T03:08:23.286Z,100.00
2023-11-19T03:10:26.620Z,100.00
2023-11-19T03:12:29.905Z,100.00
2023-11-19T03:14:36.013Z,100.00
2023-11-19T03:16:39.027Z,100.00
2023-11-19T03:18:43.900Z,100.00
2023-11-19T03:20:48.140Z,100.00
2023-11-19T03:22:53.040Z,100.00
2023-11-19T03:24:56.075Z,100.00
2023-11-19T03:26:59.000Z,100.00
2023-11-19T03:29:02.824Z,100.00
2023-11-19T03:31:10.090Z,100.00
2023-11-19T03:33:13.413Z,100.00
2023-11-19T03:35:17.832Z,100.00
2023-11-19T03:37:21.083Z,100.00
2023-11-19T03:39:26.353Z,100.00
2023-11-19T03:41:29.320Z,100.00
2023-11-19T03:43:33.176Z,100.00
2023-11-19T03:45:37.723Z,100.00
2023-11-19T03:47:41.059Z,100.00
2023-11-19T03:49:45.560Z,100.00
2023-11-19T03:51:50.080Z,100.00
2023-11-19T03:53:54.063Z,100.00
2023-11-19T03:55:57.442Z,100.00
2023-11-19T03:58:00.563Z,100.00
2023-11-19T04:00:10.489Z,100.00
2023-11-19T04:02:17.182Z,100.00
2023-11-19T04:04:20.269Z,100.00
2023-11-19T04:06:23.372Z,100.00
2023-11-19T04:08:27.764Z,100.00
2023-11-19T04:10:30.834Z,100.00
2023-11-19T04:12:34.064Z,100.00
2023-11-19T04:14:38.145Z,100.00
2023-11-19T04:16:41.184Z,100.00
2023-11-19T04:18:44.486Z,100.00
2023-11-19T04:20:47.468Z,100.00
2023-11-19T04:22:52.572Z,100.00
2023-11-19T04:24:57.445Z,100.00
2023-11-19T04:27:00.453Z,100.00
2023-11-19T04:29:03.423Z,100.00
2023-11-19T04:31:07.696Z,100.00
2023-11-19T04:33:10.791Z,100.00
2023-11-19T04:35:13.745Z,100.00
2023-11-19T04:37:16.929Z,100.00
2023-11-19T04:39:20.512Z,100.00
2023-11-19T04:41:24.876Z,100.00
2023-11-19T04:43:28.166Z,100.00
2023-11-19T04:45:31.236Z,100.00
2023-11-19T04:47:34.559Z,100.00
2023-11-19T04:49:41.278Z,100.00
2023-11-19T04:51:45.670Z,100.00
2023-11-19T04:53:48.685Z,100.00
2023-11-19T04:55:51.793Z,100.00
2023-11-19T04:57:57.569Z,100.00
2023-11-19T05:00:00.658Z,100.00
2023-11-19T05:02:03.555Z,100.00
2023-11-19T05:04:06.860Z,100.00
2023-11-19T05:06:10.333Z,100.00
2023-11-19T05:08:13.305Z,100.00
2023-11-19T05:10:16.613Z,100.00
2023-11-19T05:12:20.058Z,100.00
2023-11-19T05:14:25.869Z,100.00
2023-11-19T05:16:28.966Z,100.00
2023-11-19T05:18:31.903Z,100.00
2023-11-19T05:20:34.855Z,100.00
2023-11-19T05:22:38.801Z,100.00
2023-11-19T05:24:42.426Z,100.00
2023-11-19T05:26:45.517Z,100.00
2023-11-19T05:28:49.014Z,100.00
2023-11-19T05:30:53.533Z,100.00
2023-11-19T05:32:56.607Z,100.00
2023-11-19T05:34:59.527Z,100.00
2023-11-19T05:37:02.643Z,100.00
2023-11-19T05:39:06.404Z,100.00
2023-11-19T05:41:09.764Z,100.00
2023-11-19T05:43:12.898Z,100.00
2023-11-19T05:45:16.106Z,100.00
2023-11-19T05:47:20.842Z,100.00
2023-11-19T05:49:24.120Z,100.00
2023-11-19T05:51:27.226Z,100.00
2023-11-19T05:53:30.823Z,100.00
2023-11-19T05:55:35.765Z,100.00
2023-11-19T05:57:47.058Z,100.00
2023-11-19T05:59:51.206Z,100.00
2023-11-19T06:01:54.472Z,100.00
2023-11-19T06:03:58.894Z,100.00
2023-11-19T06:06:01.998Z,100.00
2023-11-19T06:08:05.114Z,100.00
2023-11-19T06:10:11.372Z,100.00
2023-11-19T06:12:15.584Z,100.00
2023-11-19T06:14:18.749Z,100.00
2023-11-19T06:16:21.927Z,100.00
2023-11-19T06:18:25.205Z,100.00
2023-11-19T06:20:43.218Z,100.00
2023-11-19T06:22:47.220Z,100.00
2023-11-19T06:24:50.206Z,100.00
2023-11-19T06:26:53.260Z,100.00
2023-11-19T06:28:56.232Z,100.00
2023-11-19T06:30:59.603Z,100.00
2023-11-19T06:33:02.963Z,100.00
2023-11-19T06:35:07.133Z,100.00
2023-11-19T06:37:11.614Z,100.00
2023-11-19T06:39:14.706Z,100.00
2023-11-19T06:41:17.817Z,100.00
2023-11-19T06:43:20.963Z,100.00
2023-11-19T06:45:23.923Z,100.00
2023-11-19T06:47:28.594Z,100.00
2023-11-19T06:49:31.511Z,100.00
2023-11-19T06:51:35.151Z,100.00
2023-11-19T06:53:41.242Z,100.00
2023-11-19T06:55:44.262Z,100.00
2023-11-19T06:57:47.378Z,100.00
2023-11-19T06:59:50.464Z,100.00
2023-11-19T07:01:53.606Z,100.00
2023-11-19T07:03:59.553Z,100.00
2023-11-19T07:06:02.665Z,100.00
2023-11-19T07:08:08.632Z,100.00
2023-11-19T07:10:13.270Z,100.00
2023-11-19T07:12:16.928Z,100.00
2023-11-19T07:14:20.338Z,100.00
2023-11-19T07:16:23.446Z,100.00
2023-11-19T07:18:28.043Z,100.00
2023-11-19T07:20:31.013Z,100.00
2023-11-19T07:22:34.140Z,100.00
2023-11-19T07:24:37.216Z,100.00
2023-11-19T07:26:44.990Z,100.00
2023-11-19T07:28:48.114Z,100.00
2023-11-19T07:30:51.272Z,100.00
2023-11-19T07:32:54.566Z,100.00
2023-11-19T07:34:57.879Z,100.00
2023-11-19T07:37:03.952Z,100.00
2023-11-19T07:39:07.099Z,100.00
2023-11-19T07:41:14.478Z,100.00
2023-11-19T07:43:19.168Z,100.00
2023-11-19T07:45:22.617Z,100.00
2023-11-19T07:47:25.563Z,100.00
2023-11-19T07:49:28.835Z,100.00
2023-11-19T07:51:31.768Z,100.00
2023-11-19T07:53:35.061Z,100.00
2023-11-19T07:55:38.084Z,100.00
2023-11-19T07:57:45.692Z,100.00
2023-11-19T07:59:50.323Z,100.00
2023-11-19T08:01:53.354Z,100.00
2023-11-19T08:06:04.202Z,100.00
2023-11-19T08:08:07.586Z,100.00
2023-11-19T08:10:11.411Z,100.00
2023-11-19T08:12:16.064Z,100.00
2023-11-19T08:14:19.104Z,100.00
2023-11-19T08:16:23.612Z,100.00
2023-11-19T08:18:26.757Z,100.00
2023-11-19T08:20:29.756Z,100.00
2023-11-19T08:22:33.116Z,99.81
2023-11-19T08:24:36.045Z,98.94
2023-11-19T08:26:39.216Z,98.42
2023-11-19T08:28:42.625Z,99.62
2023-11-19T08:30:46.161Z,100.00
2023-11-19T08:32:50.755Z,100.00
2023-11-19T08:34:54.086Z,100.00
2023-11-19T08:36:57.298Z,98.54
2023-11-19T08:39:00.258Z,99.09
2023-11-19T08:41:03.563Z,98.86
2023-11-19T08:43:07.916Z,100.00
2023-11-19T08:45:12.259Z,99.22
2023-11-19T08:47:15.386Z,98.92
2023-11-19T08:49:20.042Z,98.74
2023-11-19T08:51:24.319Z,98.47
2023-11-19T08:53:27.270Z,99.02
2023-11-19T08:55:30.298Z,98.85
2023-11-19T08:57:34.198Z,98.09
2023-11-19T08:59:39.189Z,97.29
2023-11-19T09:01:42.546Z,98.76
2023-11-19T09:03:45.807Z,99.19
2023-11-19T09:05:50.279Z,98.79
2023-11-19T09:07:54.007Z,97.76
2023-11-19T09:09:56.966Z,97.67
2023-11-19T09:11:59.950Z,97.70
2023-11-19T09:14:02.930Z,97.12
2023-11-19T09:16:06.805Z,99.08
2023-11-19T09:18:09.771Z,97.95
2023-11-19T09:20:16.790Z,98.42
2023-11-19T09:22:21.396Z,97.25
2023-11-19T09:24:24.375Z,97.98
2023-11-19T09:26:27.279Z,97.98
2023-11-19T09:28:30.307Z,97.87
2023-11-19T09:30:35.608Z,96.73
2023-11-19T09:32:39.214Z,97.84
2023-11-19T09:34:42.233Z,97.87
2023-11-19T09:36:46.401Z,96.08
2023-11-19T09:38:50.764Z,95.58
2023-11-19T09:40:54.395Z,96.69
2023-11-19T09:42:57.601Z,95.91
2023-11-19T09:45:04.987Z,95.65
2023-11-19T09:47:09.757Z,97.13
2023-11-19T09:49:14.199Z,97.73
2023-11-19T09:51:17.642Z,97.23
2023-11-19T09:53:22.103Z,95.37
2023-11-19T09:55:26.681Z,98.61
2023-11-19T09:57:32.585Z,98.66
2023-11-19T09:59:35.835Z,99.33
2023-11-19T10:01:39.927Z,99.94
2023-11-19T10:03:45.628Z,99.32
2023-11-19T10:05:49.152Z,99.50
2023-11-19T10:08:14.561Z,100.00
2023-11-19T10:11:07.010Z,100.00
2023-11-19T10:13:47.644Z,100.00
2023-11-19T10:19:17.413Z,100.00
2023-11-19T10:22:14.844Z,100.00
2023-11-19T10:25:07.311Z,99.72
2023-11-19T10:27:28.736Z,100.00
2023-11-19T10:29:32.542Z,100.00
2023-11-19T10:31:35.564Z,100.00
2023-11-19T10:33:38.470Z,100.00
2023-11-19T10:38:02.323Z,100.00
2023-11-19T10:40:06.996Z,100.00
2023-11-19T10:42:18.246Z,100.00
2023-11-19T10:44:37.855Z,100.00
2023-11-19T10:46:42.275Z,100.00
2023-11-19T10:48:46.023Z,100.00
2023-11-19T10:50:54.662Z,100.00
2023-11-19T10:53:01.755Z,100.00
2023-11-19T10:55:09.673Z,100.00
2023-11-19T10:57:20.952Z,100.00
2023-11-19T10:59:27.890Z,100.00
2023-11-19T11:01:42.248Z,100.00
2023-11-19T11:03:47.690Z,100.00
2023-11-19T11:05:52.175Z,100.00
2023-11-19T11:07:58.134Z,100.00
2023-11-19T11:10:03.290Z,100.00
2023-11-19T11:12:08.476Z,100.00
2023-11-19T11:14:15.766Z,100.00
2023-11-19T11:16:20.762Z,100.00
2023-11-19T11:18:26.705Z,100.00
2023-11-19T11:20:31.207Z,100.00
2023-11-19T11:22:46.587Z,100.00
2023-11-19T11:25:18.707Z,100.00
2023-11-19T11:27:50.352Z,100.00
2023-11-19T11:30:03.830Z,100.00
2023-11-19T11:32:18.734Z,100.00
2023-11-19T11:34:52.999Z,100.00
2023-11-19T11:37:12.316Z,100.00
2023-11-19T11:39:16.605Z,100.00
2023-11-19T11:41:26.445Z,100.00
2023-11-19T11:43:49.680Z,100.00
2023-11-19T11:45:52.854Z,100.00
2023-11-19T11:48:21.984Z,100.00
2023-11-19T11:50:28.218Z,100.00
2023-11-19T11:52:31.873Z,100.00
2023-11-19T11:54:36.884Z,100.00
2023-11-19T11:56:40.499Z,100.00
2023-11-19T11:58:46.716Z,100.00
2023-11-19T12:00:50.634Z,100.00
2023-11-19T12:02:53.634Z,100.00
2023-11-19T12:04:56.594Z,100.00
2023-11-19T12:07:08.534Z,100.00
2023-11-19T12:09:12.933Z,100.00
2023-11-19T12:11:16.843Z,100.00
2023-11-19T12:13:20.738Z,100.00
2023-11-19T12:15:26.562Z,100.00
2023-11-19T12:17:42.697Z,100.00
2023-11-19T12:19:46.408Z,100.00
2023-11-19T12:21:49.281Z,100.00
2023-11-19T12:23:54.769Z,100.00
2023-11-19T12:25:58.085Z,100.00
2023-11-19T12:28:06.048Z,100.00
2023-11-19T12:30:11.314Z,100.00
2023-11-19T12:32:15.564Z,100.00
2023-11-19T12:34:18.635Z,100.00
2023-11-19T12:36:22.148Z,100.00
2023-11-19T12:38:26.422Z,100.00
2023-11-19T12:40:30.935Z,100.00
2023-11-19T12:42:38.240Z,100.00
2023-11-19T12:44:41.420Z,100.00
2023-11-19T12:46:44.308Z,100.00
2023-11-19T12:48:48.073Z,100.00
2023-11-19T12:50:54.962Z,100.00
2023-11-19T12:52:59.177Z,100.00
2023-11-19T12:55:02.405Z,100.00
2023-11-19T12:57:07.413Z,100.00
2023-11-19T12:59:14.222Z,100.00
2023-11-19T13:01:19.691Z,100.00
2023-11-19T13:03:32.504Z,100.00
2023-11-19T13:05:35.718Z,100.00
2023-11-19T13:07:38.685Z,100.00
2023-11-19T13:09:41.855Z,100.00
2023-11-19T13:11:46.787Z,100.00
2023-11-19T13:13:59.323Z,100.00
2023-11-19T13:16:10.561Z,100.00
2023-11-19T13:18:14.061Z,100.00
2023-11-19T13:20:18.160Z,100.00
2023-11-19T13:22:21.757Z,100.00
2023-11-19T13:24:24.705Z,100.00
2023-11-19T13:26:27.719Z,100.00
2023-11-19T13:28:30.725Z,100.00
2023-11-19T13:30:35.206Z,100.00
2023-11-19T13:32:39.270Z,100.00
2023-11-19T13:34:42.537Z,100.00
2023-11-19T13:36:45.560Z,100.00
2023-11-19T13:38:48.810Z,100.00
2023-11-19T13:40:52.722Z,100.00
2023-11-19T13:42:55.839Z,100.00
2023-11-19T13:44:58.949Z,100.00
2023-11-19T13:47:04.181Z,100.00
2023-11-19T13:49:07.198Z,100.00
2023-11-19T13:51:11.790Z,100.00
2023-11-19T13:53:14.728Z,100.00
2023-11-19T13:55:17.816Z,100.00
2023-11-19T13:57:20.966Z,100.00
2023-11-19T13:59:23.914Z,100.00
2023-11-19T14:01:28.114Z,100.00
2023-11-19T14:03:32.855Z,100.00
2023-11-19T14:05:38.540Z,100.00
2023-11-19T14:07:41.923Z,100.00
2023-11-19T14:09:45.667Z,100.00
2023-11-19T14:11:49.943Z,100.00
2023-11-19T14:13:53.855Z,100.00
2023-11-19T14:15:57.196Z,100.00
2023-11-19T14:18:00.283Z,100.00
2023-11-19T14:20:14.582Z,100.00
2023-11-19T14:22:17.624Z,100.00
2023-11-19T14:24:20.664Z,100.00
2023-11-19T14:26:23.675Z,100.00
2023-11-19T14:28:27.741Z,100.00
2023-11-19T14:30:30.754Z,100.00
2023-11-19T14:32:33.859Z,100.00
2023-11-19T14:34:36.855Z,100.00
2023-11-19T14:36:41.643Z,100.00
2023-11-19T14:38:44.605Z,100.00
2023-11-19T14:40:48.065Z,100.00
2023-11-19T14:42:51.360Z,100.00
2023-11-19T14:44:55.085Z,100.00
2023-11-19T14:46:58.606Z,100.00
2023-11-19T14:49:01.881Z,100.00
2023-11-19T14:51:05.058Z,100.00
2023-11-19T14:53:09.718Z,100.00
2023-11-19T14:55:13.052Z,100.00
2023-11-19T14:57:16.194Z,100.00
2023-11-19T14:59:19.774Z,100.00
2023-11-19T15:01:23.138Z,100.00
2023-11-19T15:03:26.700Z,100.00
2023-11-19T15:05:31.053Z,100.00
2023-11-19T15:07:33.995Z,100.00
2023-11-19T15:09:38.677Z,100.00
2023-11-19T15:11:41.745Z,100.00
2023-11-19T15:13:44.805Z,100.00
2023-11-19T15:15:47.760Z,100.00
2023-11-19T15:17:50.884Z,100.00
2023-11-19T15:19:53.889Z,100.00
2023-11-19T15:21:56.963Z,100.00
2023-11-19T15:24:00.187Z,100.00
2023-11-19T15:26:05.365Z,100.00
2023-11-19T15:28:08.346Z,100.00
2023-11-19T15:30:12.841Z,100.00
2023-11-19T15:32:15.928Z,100.00
2023-11-19T15:34:20.546Z,100.00
2023-11-19T15:36:23.544Z,100.00
2023-11-19T15:38:27.541Z,100.00
2023-11-19T15:40:30.596Z,100.00
2023-11-19T15:42:35.110Z,100.00
2023-11-19T15:44:39.000Z,100.00
2023-11-19T15:46:43.278Z,100.00
2023-11-19T15:48:46.156Z,100.00
2023-11-19T15:50:49.157Z,100.00
2023-11-19T15:52:52.047Z,100.00
2023-11-19T15:54:55.003Z,100.00
2023-11-19T15:56:57.925Z,100.00
2023-11-19T15:59:02.389Z,100.00
2023-11-19T16:01:06.283Z,100.00
2023-11-19T16:03:09.486Z,100.00
2023-11-19T16:05:15.193Z,100.00
2023-11-19T16:07:18.761Z,100.00
2023-11-19T16:09:23.639Z,100.00
2023-11-19T16:11:26.844Z,100.00
2023-11-19T16:13:29.848Z,100.00
2023-11-19T16:15:37.143Z,100.00
2023-11-19T16:17:40.680Z,100.00
2023-11-19T16:19:43.988Z,100.00
2023-11-19T16:21:48.317Z,100.00
2023-11-19T16:23:51.506Z,100.00
2023-11-19T16:25:54.791Z,100.00
2023-11-19T16:27:57.716Z,100.00
2023-11-19T16:30:02.083Z,100.00
2023-11-19T16:32:10.672Z,100.00
2023-11-19T16:34:13.495Z,100.00
2023-11-19T16:36:16.743Z,100.00
2023-11-19T16:38:19.977Z,100.00
2023-11-19T16:40:24.766Z,100.00
2023-11-19T16:42:27.883Z,100.00
2023-11-19T16:44:31.078Z,100.00
2023-11-19T16:46:34.436Z,100.00
2023-11-19T16:48:39.275Z,100.00
2023-11-19T16:50:42.639Z,100.00
2023-11-19T16:52:45.746Z,100.00
2023-11-19T16:54:48.706Z,100.00
2023-11-19T16:56:51.689Z,100.00
2023-11-19T16:58:54.786Z,100.00
2023-11-19T17:00:59.184Z,100.00
2023-11-19T17:03:03.946Z,100.00
2023-11-19T17:05:09.014Z,100.00
2023-11-19T17:07:11.943Z,100.00
2023-11-19T17:09:14.933Z,100.00
2023-11-19T17:11:18.050Z,100.00
2023-11-19T17:13:23.509Z,100.00
2023-11-19T17:15:26.369Z,100.00
2023-11-19T17:17:35.146Z,100.00
2023-11-19T17:19:38.308Z,100.00
2023-11-19T17:21:42.782Z,100.00
2023-11-19T17:23:45.815Z,100.00
2023-11-19T17:25:49.242Z,100.00
2023-11-19T17:27:52.264Z,100.00
2023-11-19T17:29:55.700Z,100.00
2023-11-19T17:31:58.641Z,100.00
2023-11-19T17:34:02.083Z,100.00
2023-11-19T17:36:07.835Z,100.00
2023-11-19T17:40:18.291Z,100.00
2023-11-19T17:42:21.256Z,100.00
2023-11-19T17:44:24.504Z,100.00
2023-11-19T17:46:27.458Z,100.00
2023-11-19T17:48:30.412Z,100.00
2023-11-19T17:50:33.885Z,100.00
2023-11-19T17:52:36.926Z,100.00
2023-11-19T17:54:41.554Z,100.00
2023-11-19T17:56:45.447Z,100.00
2023-11-19T17:58:48.586Z,100.00
2023-11-19T18:00:51.487Z,100.00
2023-11-19T18:02:54.981Z,100.00
2023-11-19T18:04:58.525Z,100.00
2023-11-19T18:07:02.278Z,100.00
2023-11-19T18:09:07.713Z,100.00
2023-11-19T18:11:12.112Z,100.00
2023-11-19T18:13:15.068Z,100.00
2023-11-19T18:15:18.222Z,100.00
2023-11-19T18:17:21.190Z,100.00
2023-11-19T18:19:24.297Z,100.00
2023-11-19T18:21:27.319Z,100.00
2023-11-19T18:23:30.355Z,100.00
2023-11-19T18:25:33.621Z,100.00
2023-11-19T18:27:39.676Z,100.00
2023-11-19T18:29:44.422Z,100.00
2023-11-19T18:31:47.418Z,100.00
2023-11-19T18:33:50.590Z,100.00
2023-11-19T18:35:53.815Z,100.00
2023-11-19T18:37:56.742Z,100.00
2023-11-19T18:39:59.796Z,100.00
2023-11-19T18:42:02.752Z,100.00
2023-11-19T18:44:11.108Z,100.00
2023-11-19T18:46:14.635Z,100.00
2023-11-19T18:48:17.603Z,100.00
2023-11-19T18:50:22.531Z,100.00
2023-11-19T18:52:26.087Z,100.00
2023-11-19T18:54:28.945Z,100.00
2023-11-19T18:56:31.923Z,100.00
2023-11-19T18:58:34.927Z,100.00
2023-11-19T19:00:39.444Z,100.00
2023-11-19T19:03:03.845Z,100.00
2023-11-19T19:05:07.550Z,100.00
2023-11-19T19:07:10.689Z,100.00
2023-11-19T19:09:15.227Z,100.00
2023-11-19T19:11:20.356Z,100.00
2023-11-19T19:13:23.544Z,100.00
2023-11-19T19:15:28.023Z,100.00
2023-11-19T19:17:32.825Z,100.00
2023-11-19T19:19:35.754Z,100.00
2023-11-19T19:21:38.933Z,100.00
2023-11-19T19:23:41.872Z,100.00
2023-11-19T19:25:44.894Z,100.00
2023-11-19T19:27:50.182Z,100.00
2023-11-19T19:29:55.695Z,100.00
2023-11-19T19:31:59.924Z,100.00
2023-11-19T19:34:04.381Z,100.00
2023-11-19T19:36:10.966Z,100.00
2023-11-19T19:38:14.286Z,100.00
2023-11-19T19:42:24.519Z,100.00
2023-11-19T19:44:27.745Z,100.00
2023-11-19T19:46:30.983Z,100.00
2023-11-19T19:48:34.120Z,100.00
2023-11-19T19:50:38.690Z,100.00
2023-11-19T19:52:42.354Z,100.00
2023-11-19T19:54:45.696Z,100.00
2023-11-19T19:56:48.619Z,100.00
2023-11-19T19:58:51.683Z,100.00
2023-11-19T20:00:55.013Z,100.00
2023-11-19T20:02:59.812Z,100.00
2023-11-19T20:05:02.822Z,100.00
2023-11-19T20:07:07.987Z,100.00
2023-11-19T20:09:15.113Z,100.00
2023-11-19T20:11:18.992Z,100.00
2023-11-19T20:13:24.155Z,100.00
2023-11-19T20:15:27.145Z,100.00
2023-11-19T20:17:30.204Z,100.00
2023-11-19T20:19:33.235Z,100.00
2023-11-19T20:21:37.930Z,100.00
2023-11-19T20:23:42.315Z,100.00
2023-11-19T20:25:45.250Z,100.00
2023-11-19T20:27:49.602Z,100.00
2023-11-19T20:29:52.700Z,100.00
2023-11-19T20:31:55.744Z,100.00
2023-11-19T20:33:58.668Z,100.00
2023-11-19T20:36:01.633Z,100.00
2023-11-19T20:38:05.305Z,100.00
2023-11-19T20:40:13.189Z,100.00
2023-11-19T20:42:16.088Z,100.00
2023-11-19T20:44:19.185Z,100.00
2023-11-19T20:46:22.045Z,100.00
2023-11-19T20:48:25.421Z,100.00
2023-11-19T20:50:29.654Z,100.00
2023-11-19T20:52:32.627Z,100.00
2023-11-19T20:56:43.162Z,100.00
2023-11-19T20:58:45.988Z,100.00
2023-11-19T21:00:49.072Z,100.00
2023-11-19T21:02:52.080Z,100.00
2023-11-19T21:04:55.042Z,100.00
2023-11-19T21:06:58.970Z,100.00
2023-11-19T21:09:04.093Z,100.00
2023-11-19T21:11:10.283Z,100.00
2023-11-19T21:13:14.764Z,100.00
2023-11-19T21:15:18.558Z,100.00
2023-11-19T21:17:21.499Z,100.00
2023-11-19T21:19:24.504Z,100.00
2023-11-19T21:21:27.495Z,100.00
2023-11-19T21:23:31.614Z,100.00
2023-11-19T21:25:34.577Z,100.00
2023-11-19T21:27:37.638Z,100.00
2023-11-19T21:29:42.178Z,100.00
2023-11-19T21:33:50.924Z,100.00
2023-11-19T21:35:54.258Z,100.00
2023-11-19T21:37:58.244Z,100.00
2023-11-19T21:40:01.671Z,100.00
2023-11-19T21:42:05.263Z,100.00
2023-11-19T21:44:09.044Z,100.00
2023-11-19T21:46:14.074Z,100.00
2023-11-19T21:48:16.981Z,100.00
2023-11-19T21:50:20.102Z,100.00
2023-11-19T21:52:23.415Z,100.00
2023-11-19T21:54:26.724Z,100.00
2023-11-19T21:56:29.635Z,100.00
2023-11-19T21:58:32.664Z,100.00
2023-11-19T22:00:35.656Z,100.00
2023-11-19T22:02:40.164Z,100.00
2023-11-19T22:04:43.094Z,100.00
2023-11-19T22:06:46.356Z,100.00
2023-11-19T22:08:49.516Z,100.00
2023-11-19T22:10:52.955Z,100.00
2023-11-19T22:12:55.856Z,100.00
2023-11-19T22:14:58.935Z,100.00
2023-11-19T22:17:01.889Z,100.00
2023-11-19T22:19:06.926Z,100.00
2023-11-19T22:21:09.845Z,100.00
2023-11-19T22:23:12.943Z,100.00
2023-11-19T22:25:15.958Z,100.00
2023-11-19T22:27:19.057Z,100.00
2023-11-19T22:29:22.405Z,100.00
2023-11-19T22:31:25.511Z,100.00
2023-11-19T22:33:29.827Z,100.00
2023-11-19T22:35:34.551Z,100.00
2023-11-19T22:37:37.634Z,100.00
2023-11-19T22:39:40.699Z,100.00
2023-11-19T22:41:43.576Z,100.00
2023-11-19T22:43:47.349Z,100.00
2023-11-19T22:45:50.649Z,100.00
2023-11-19T22:47:54.220Z,100.00
2023-11-19T22:49:57.325Z,100.00
2023-11-19T22:52:02.246Z,100.00
2023-11-19T22:54:05.388Z,100.00
2023-11-19T22:56:09.466Z,100.00
2023-11-19T22:58:12.402Z,100.00
2023-11-19T23:00:29.625Z,100.00
2023-11-19T23:02:32.817Z,100.00
2023-11-19T23:04:35.966Z,100.00
2023-11-19T23:06:38.961Z,100.00
2023-11-19T23:08:43.384Z,100.00
2023-11-19T23:10:47.169Z,100.00
2023-11-19T23:12:50.437Z,100.00
2023-11-19T23:14:53.375Z,100.00
2023-11-19T23:16:56.365Z,100.00
2023-11-19T23:18:59.555Z,100.00
2023-11-19T23:21:03.848Z,100.00
2023-11-19T23:23:06.865Z,100.00
2023-11-19T23:25:12.280Z,100.00
2023-11-19T23:27:17.169Z,100.00
2023-11-19T23:29:20.370Z,100.00
2023-11-19T23:31:23.812Z,100.00
2023-11-19T23:33:26.999Z,100.00
2023-11-19T23:35:30.008Z,100.00
2023-11-19T23:37:33.213Z,100.00
2023-11-19T23:39:36.093Z,100.00
2023-11-19T23:41:40.493Z,100.00
2023-11-19T23:43:43.505Z,100.00
2023-11-19T23:45:46.686Z,100.00
2023-11-19T23:47:49.717Z,100.00
2023-11-19T23:49:52.826Z,100.00
2023-11-19T23:51:55.885Z,100.00
2023-11-19T23:53:58.807Z,100.00
2023-11-19T23:56:01.867Z,100.00
2023-11-19T23:58:06.355Z,100.00
